Time;durP1;ratioP1;P1;durP2;ratioP2;P2;SDS_P1;SDS_P2;PMS_P1;PMS_P2;Temp;Humidity;BMP_temperature;BMP_pressure;BME280_temperature;BME280_humidity;BME280_pressure;Samples;Min_cycle;Max_cycle;Signal;HPM_P1;HPM_P2
2023/04/16 00:02:04;;;;;;;104.05;40.72;;;8.70;99.90;;;;;;4898026;29;20420;-94
2023/04/16 00:04:30;;;;;;;102.65;40.58;;;8.70;99.90;;;;;;4897942;29;20762;-91
2023/04/16 00:06:56;;;;;;;96.38;39.30;;;9.00;99.90;;;;;;4898304;29;20428;-95
2023/04/16 00:09:21;;;;;;;94.67;40.00;;;9.00;99.90;;;;;;4897698;29;20451;-92
2023/04/16 00:11:47;;;;;;;85.43;38.30;;;8.70;99.90;;;;;;4897912;29;21104;-92
2023/04/16 00:14:13;;;;;;;95.85;39.25;;;9.00;99.90;;;;;;4897381;29;20478;-92
2023/04/16 00:16:39;;;;;;;92.82;39.30;;;8.40;99.90;;;;;;4898130;29;20900;-93
2023/04/16 00:19:04;;;;;;;93.87;39.00;;;8.90;99.90;;;;;;4897701;29;20919;-91
2023/04/16 00:21:30;;;;;;;99.23;40.37;;;8.90;99.90;;;;;;4898003;29;20415;-92
2023/04/16 00:23:56;;;;;;;106.90;40.35;;;8.90;99.90;;;;;;4898277;29;20416;-91
2023/04/16 00:26:21;;;;;;;109.80;39.85;;;8.80;99.90;;;;;;4897704;29;20423;-92
2023/04/16 00:28:47;;;;;;;104.67;39.70;;;8.80;99.90;;;;;;4897691;29;20921;-90
2023/04/16 00:31:13;;;;;;;103.43;39.72;;;8.80;99.90;;;;;;4897548;29;20423;-92
2023/04/16 00:33:38;;;;;;;99.88;39.85;;;8.70;99.90;;;;;;4897914;29;20415;-94
2023/04/16 00:36:04;;;;;;;102.00;40.00;;;9.00;99.90;;;;;;4897357;29;20428;-91
2023/04/16 00:38:31;;;;;;;92.75;38.25;;;8.80;99.90;;;;;;4897983;29;20796;-91
2023/04/16 00:41:00;;;;;;;98.03;38.60;;;9.00;99.90;;;;;;4897792;29;20459;-90
2023/04/16 00:43:26;;;;;;;95.13;38.55;;;8.90;99.90;;;;;;4897813;29;20455;-91
2023/04/16 00:45:54;;;;;;;95.20;39.15;;;9.30;99.90;;;;;;4897934;29;20419;-92
2023/04/16 00:48:20;;;;;;;96.35;38.75;;;9.00;99.90;;;;;;4897409;29;20463;-91
2023/04/16 00:50:47;;;;;;;95.03;39.08;;;8.80;99.90;;;;;;4897771;29;20463;-91
2023/04/16 00:53:13;;;;;;;93.70;38.35;;;8.80;99.90;;;;;;4897352;29;20415;-92
2023/04/16 00:55:39;;;;;;;90.60;38.92;;;9.00;99.90;;;;;;4897557;29;20412;-91
2023/04/16 00:58:05;;;;;;;90.05;38.72;;;8.80;99.90;;;;;;4897603;29;21040;-92
2023/04/16 01:00:31;;;;;;;87.95;37.35;;;8.80;99.90;;;;;;4897553;29;20523;-90
2023/04/16 01:02:58;;;;;;;84.30;37.67;;;8.80;99.90;;;;;;4898269;29;20548;-91
2023/04/16 01:05:25;;;;;;;89.07;37.80;;;9.00;99.90;;;;;;4897587;29;20793;-93
2023/04/16 01:07:51;;;;;;;85.57;36.40;;;8.80;99.90;;;;;;4897609;29;20457;-92
2023/04/16 01:10:17;;;;;;;85.03;36.13;;;8.90;99.90;;;;;;4896754;29;20411;-92
2023/04/16 01:12:42;;;;;;;89.10;37.42;;;8.90;99.90;;;;;;4900683;29;20418;-92
2023/04/16 01:15:10;;;;;;;79.28;35.03;;;8.80;99.90;;;;;;4900694;29;20916;-91
2023/04/16 01:17:35;;;;;;;80.60;36.30;;;8.80;99.90;;;;;;4901584;29;20482;-91
2023/04/16 01:20:01;;;;;;;78.10;35.85;;;8.80;99.90;;;;;;4901098;29;20451;-94
2023/04/16 01:22:28;;;;;;;76.27;35.67;;;8.80;99.90;;;;;;4901174;29;20419;-91
2023/04/16 01:24:53;;;;;;;84.82;35.75;;;8.70;99.90;;;;;;4901082;29;20427;-92
2023/04/16 01:27:19;;;;;;;87.15;37.50;;;8.80;99.90;;;;;;4900589;29;20426;-93
2023/04/16 01:29:45;;;;;;;85.87;36.73;;;8.80;99.90;;;;;;4901248;29;20766;-92
2023/04/16 01:32:10;;;;;;;83.00;36.17;;;8.90;99.90;;;;;;4901039;29;20427;-91
2023/04/16 01:34:36;;;;;;;87.43;36.97;;;9.00;99.90;;;;;;4900994;29;20924;-91
2023/04/16 01:37:03;;;;;;;82.73;36.67;;;8.90;99.90;;;;;;4900689;29;20485;-92
2023/04/16 01:39:28;;;;;;;78.28;35.70;;;8.80;99.90;;;;;;4901112;29;20928;-92
2023/04/16 01:41:54;;;;;;;78.20;36.00;;;8.90;99.90;;;;;;4901100;29;20515;-92
2023/04/16 01:44:21;;;;;;;81.83;37.93;;;8.80;99.90;;;;;;4901017;29;20430;-91
2023/04/16 01:46:47;;;;;;;76.78;37.22;;;8.90;99.90;;;;;;4900946;29;20418;-92
2023/04/16 01:49:14;;;;;;;77.70;37.67;;;9.50;99.90;;;;;;4900086;29;20901;-94
2023/04/16 01:51:40;;;;;;;83.50;38.83;;;8.80;99.90;;;;;;4900634;29;20415;-92
2023/04/16 01:54:06;;;;;;;75.93;38.40;;;8.80;99.90;;;;;;4900367;29;20418;-91
2023/04/16 01:56:32;;;;;;;80.28;38.45;;;9.00;99.90;;;;;;4892027;29;20422;-93
2023/04/16 01:58:58;;;;;;;80.50;38.60;;;9.10;99.90;;;;;;4874465;29;20446;-91
2023/04/16 02:01:23;;;;;;;83.40;38.43;;;8.80;99.90;;;;;;4863125;29;20893;-93
2023/04/16 02:03:51;;;;;;;87.00;39.92;;;8.70;99.90;;;;;;4863886;29;20436;-91
2023/04/16 02:06:16;;;;;;;90.00;41.00;;;8.70;99.90;;;;;;4862624;29;20414;-92
2023/04/16 02:08:42;;;;;;;86.90;41.03;;;8.90;99.90;;;;;;4863686;29;20434;-91
2023/04/16 02:11:08;;;;;;;86.72;40.25;;;8.90;99.90;;;;;;4861970;29;20414;-91
2023/04/16 02:13:34;;;;;;;93.47;41.50;;;9.00;99.90;;;;;;4863079;29;20421;-91
2023/04/16 02:15:59;;;;;;;100.07;43.50;;;8.70;99.90;;;;;;4863091;29;20421;-91
2023/04/16 02:18:25;;;;;;;91.20;41.33;;;8.70;99.90;;;;;;4862744;29;20457;-92
2023/04/16 02:20:51;;;;;;;93.07;41.47;;;8.70;99.90;;;;;;4863036;29;20427;-91
2023/04/16 02:23:16;;;;;;;91.65;41.63;;;9.00;99.90;;;;;;4862250;29;20792;-91
2023/04/16 02:25:44;;;;;;;88.00;41.83;;;8.60;99.90;;;;;;4862933;29;20426;-90
2023/04/16 02:28:15;;;;;;;93.35;42.95;;;8.50;99.90;;;;;;4862735;29;20954;-91
2023/04/16 02:30:41;;;;;;;88.70;41.47;;;8.70;99.90;;;;;;4862786;29;20419;-91
2023/04/16 02:33:09;;;;;;;95.07;41.85;;;8.50;99.90;;;;;;4862685;29;20856;-92
2023/04/16 02:35:36;;;;;;;100.82;43.03;;;8.60;99.90;;;;;;4862818;29;20566;-92
2023/04/16 02:38:03;;;;;;;95.47;43.80;;;8.50;99.90;;;;;;4862705;29;20442;-91
2023/04/16 02:40:29;;;;;;;104.68;44.75;;;8.60;99.90;;;;;;4862616;29;20455;-92
2023/04/16 02:42:55;;;;;;;106.82;43.92;;;8.60;99.90;;;;;;4862820;29;20492;-91
2023/04/16 02:45:21;;;;;;;99.40;43.03;;;8.90;99.90;;;;;;4862023;29;20464;-92
2023/04/16 02:47:47;;;;;;;96.95;42.55;;;8.40;99.90;;;;;;4862876;29;20514;-91
2023/04/16 02:50:13;;;;;;;101.80;44.42;;;8.90;99.90;;;;;;4862143;29;20502;-92
2023/04/16 02:52:39;;;;;;;105.13;44.00;;;9.60;99.90;;;;;;4862386;29;20498;-93
2023/04/16 02:55:05;;;;;;;102.00;45.03;;;8.70;99.90;;;;;;4862373;29;20419;-91
2023/04/16 02:57:31;;;;;;;100.53;44.37;;;8.70;99.90;;;;;;4862216;29;20442;-92
2023/04/16 02:59:57;;;;;;;98.37;43.07;;;9.00;99.90;;;;;;4862066;29;20431;-91
2023/04/16 03:02:23;;;;;;;104.70;44.40;;;9.20;99.90;;;;;;4862083;29;20431;-92
2023/04/16 03:04:48;;;;;;;105.68;43.70;;;8.80;99.90;;;;;;4862029;29;20438;-90
2023/04/16 03:07:14;;;;;;;101.70;43.42;;;8.70;99.90;;;;;;4861696;29;20431;-92
2023/04/16 03:09:40;;;;;;;104.53;43.75;;;8.90;99.90;;;;;;4861745;29;20415;-91
2023/04/16 03:12:06;;;;;;;114.13;44.33;;;8.80;99.90;;;;;;4861824;29;20419;-91
2023/04/16 03:14:31;;;;;;;113.57;44.67;;;8.90;99.90;;;;;;4862286;29;20421;-91
2023/04/16 03:16:57;;;;;;;102.90;42.53;;;8.50;99.90;;;;;;4861921;29;20587;-91
2023/04/16 03:19:23;;;;;;;105.78;42.42;;;8.60;99.90;;;;;;4861759;29;20427;-92
2023/04/16 03:21:49;;;;;;;103.40;40.97;;;8.70;99.90;;;;;;4862211;29;20831;-92
2023/04/16 03:24:15;;;;;;;100.28;40.25;;;8.80;99.90;;;;;;4861291;29;20527;-91
2023/04/16 03:26:40;;;;;;;99.30;41.70;;;8.70;99.90;;;;;;4861738;29;20475;-91
2023/04/16 03:29:06;;;;;;;99.40;40.00;;;8.60;99.90;;;;;;4861393;29;20612;-91
2023/04/16 03:31:32;;;;;;;89.60;37.45;;;8.90;99.90;;;;;;4861265;29;20419;-91
2023/04/16 03:33:57;;;;;;;91.82;37.80;;;8.60;99.90;;;;;;4860882;29;20491;-91
2023/04/16 03:36:25;;;;;;;87.13;36.13;;;8.60;99.90;;;;;;4862031;29;20955;-90
2023/04/16 03:38:51;;;;;;;93.28;38.13;;;8.70;99.90;;;;;;4861513;29;20443;-90
2023/04/16 03:41:16;;;;;;;91.00;37.67;;;8.60;99.90;;;;;;4860946;29;20426;-93
2023/04/16 03:43:42;;;;;;;89.30;37.57;;;8.80;99.90;;;;;;4861324;29;20800;-91
2023/04/16 03:46:07;;;;;;;88.28;37.25;;;8.70;99.90;;;;;;4861341;29;20430;-91
2023/04/16 03:48:33;;;;;;;92.53;37.13;;;8.80;99.90;;;;;;4861526;29;20425;-92
2023/04/16 03:50:59;;;;;;;95.07;38.20;;;8.60;99.90;;;;;;4861374;29;20429;-93
2023/04/16 03:53:25;;;;;;;93.30;37.83;;;8.70;99.90;;;;;;4861428;29;20434;-92
2023/04/16 03:55:51;;;;;;;93.63;37.85;;;8.80;99.90;;;;;;4860976;29;20471;-93
2023/04/16 03:58:17;;;;;;;107.28;38.17;;;8.60;99.90;;;;;;4860877;29;20483;-93
2023/04/16 04:00:43;;;;;;;98.87;37.83;;;8.70;99.90;;;;;;4877007;29;20430;-93
2023/04/16 04:03:10;;;;;;;97.03;38.43;;;8.60;99.90;;;;;;4860773;29;20423;-91
2023/04/16 04:05:40;;;;;;;99.80;37.60;;;9.00;99.90;;;;;;4860955;29;20879;-91
2023/04/16 04:08:06;;;;;;;98.05;37.90;;;8.60;99.90;;;;;;4860898;29;20426;-91
2023/04/16 04:10:33;;;;;;;96.53;37.42;;;8.80;99.90;;;;;;4876489;29;20419;-92
2023/04/16 04:12:59;;;;;;;106.85;39.17;;;8.60;99.90;;;;;;4876180;29;20912;-90
2023/04/16 04:15:25;;;;;;;103.22;39.33;;;8.60;99.90;;;;;;4861347;29;20419;-91
2023/04/16 04:17:50;;;;;;;99.32;38.28;;;8.60;99.90;;;;;;4876260;29;20848;-92
2023/04/16 04:20:16;;;;;;;95.55;38.00;;;8.60;99.90;;;;;;4860531;29;20411;-90
2023/04/16 04:22:42;;;;;;;100.88;36.83;;;8.60;99.90;;;;;;4860920;29;20419;-91
2023/04/16 04:25:09;;;;;;;91.73;35.83;;;8.90;99.90;;;;;;4860430;29;20434;-90
2023/04/16 04:27:35;;;;;;;95.68;36.83;;;8.50;99.90;;;;;;4860604;29;20459;-92
2023/04/16 04:30:03;;;;;;;91.30;37.53;;;8.90;99.90;;;;;;4860274;29;20458;-92
2023/04/16 04:32:30;;;;;;;87.28;35.47;;;8.60;99.90;;;;;;4860761;29;20410;-91
2023/04/16 04:34:56;;;;;;;89.88;36.17;;;8.60;99.90;;;;;;4860690;29;20415;-91
2023/04/16 04:37:21;;;;;;;86.75;35.50;;;9.00;99.90;;;;;;4876127;29;20445;-90
2023/04/16 04:39:47;;;;;;;86.35;34.42;;;8.60;99.90;;;;;;4860441;29;20419;-91
2023/04/16 04:42:13;;;;;;;88.07;35.40;;;8.60;99.90;;;;;;4859802;29;20418;-91
2023/04/16 04:44:38;;;;;;;92.40;35.53;;;8.70;99.90;;;;;;4860657;29;20433;-91
2023/04/16 04:47:04;;;;;;;84.75;34.75;;;9.00;99.90;;;;;;4859767;29;20430;-91
2023/04/16 04:49:30;;;;;;;82.88;34.70;;;8.70;99.90;;;;;;4860369;29;20502;-92
2023/04/16 04:51:56;;;;;;;86.03;33.90;;;8.40;99.90;;;;;;4873886;29;20423;-91
2023/04/16 04:54:25;;;;;;;79.82;32.55;;;9.00;99.90;;;;;;4878128;29;20915;-90
2023/04/16 04:56:51;;;;;;;82.43;32.67;;;8.70;99.90;;;;;;4878347;29;20432;-91
2023/04/16 04:59:17;;;;;;;77.13;33.03;;;9.00;99.90;;;;;;4877875;29;20637;-92
2023/04/16 05:01:45;;;;;;;85.33;34.63;;;8.90;99.90;;;;;;4871719;29;20423;-92
2023/04/16 05:04:11;;;;;;;88.75;34.78;;;8.80;99.90;;;;;;4874098;29;20450;-91
2023/04/16 05:06:37;;;;;;;87.60;34.65;;;8.90;99.90;;;;;;4870983;29;20410;-93
2023/04/16 05:09:03;;;;;;;96.10;36.08;;;8.90;99.90;;;;;;4874775;29;21409;-92
2023/04/16 05:11:28;;;;;;;92.00;35.43;;;8.50;99.90;;;;;;4877840;29;20779;-92
2023/04/16 05:17:19;;;;;;;88.32;35.33;;;8.90;99.90;;;;;;4910745;29;20573;-93
2023/04/16 05:19:45;;;;;;;91.35;35.05;;;8.50;99.90;;;;;;4878101;29;20543;-92
2023/04/16 05:22:11;;;;;;;92.32;34.53;;;9.10;99.90;;;;;;4878986;29;20512;-90
2023/04/16 05:24:37;;;;;;;86.30;34.28;;;9.20;99.90;;;;;;4878077;29;21009;-92
2023/04/16 05:27:02;;;;;;;81.60;32.63;;;9.00;99.90;;;;;;4878446;29;20516;-92
2023/04/16 05:29:28;;;;;;;85.60;32.43;;;9.00;99.90;;;;;;4878841;29;20508;-91
2023/04/16 05:31:54;;;;;;;92.63;32.53;;;9.00;99.90;;;;;;4875244;29;20421;-93
2023/04/16 05:34:19;;;;;;;79.45;31.48;;;9.30;99.90;;;;;;4860165;29;20430;-92
2023/04/16 05:36:45;;;;;;;81.82;32.42;;;9.30;99.90;;;;;;4859486;29;20423;-92
2023/04/16 05:39:11;;;;;;;83.95;33.15;;;9.50;99.90;;;;;;4870075;29;20519;-91
2023/04/16 05:41:37;;;;;;;88.67;33.83;;;9.10;99.90;;;;;;4869801;29;20425;-92
2023/04/16 05:44:03;;;;;;;80.65;34.25;;;9.10;99.90;;;;;;4878759;29;20417;-92
2023/04/16 05:46:28;;;;;;;86.07;35.03;;;9.00;99.90;;;;;;4878125;29;20426;-91
2023/04/16 05:48:54;;;;;;;82.83;34.97;;;9.00;99.90;;;;;;4878488;29;20422;-92
2023/04/16 05:51:21;;;;;;;82.93;34.23;;;9.30;99.90;;;;;;4878645;29;20406;-92
2023/04/16 05:53:47;;;;;;;79.80;34.10;;;9.00;99.90;;;;;;4878084;29;20436;-91
2023/04/16 05:56:13;;;;;;;77.23;34.63;;;8.90;99.90;;;;;;4878777;29;20910;-92
2023/04/16 05:58:38;;;;;;;75.77;33.17;;;9.10;99.90;;;;;;4880355;29;20452;-92
2023/04/16 06:01:04;;;;;;;67.00;32.38;;;9.20;99.90;;;;;;4881903;29;20516;-91
2023/04/16 06:03:30;;;;;;;75.47;33.43;;;9.80;99.90;;;;;;4881206;29;20438;-90
2023/04/16 06:05:56;;;;;;;71.83;32.63;;;9.10;99.90;;;;;;4881871;29;20449;-91
2023/04/16 06:08:21;;;;;;;70.03;32.55;;;9.10;99.90;;;;;;4882343;29;20409;-92
2023/04/16 06:10:47;;;;;;;76.40;34.55;;;9.00;99.90;;;;;;4881153;29;20425;-90
2023/04/16 06:13:13;;;;;;;72.13;32.00;;;9.20;99.90;;;;;;4881642;29;20433;-93
2023/04/16 06:15:39;;;;;;;68.93;32.08;;;9.00;99.90;;;;;;4881540;29;20421;-91
2023/04/16 06:18:05;;;;;;;72.60;32.93;;;9.20;99.90;;;;;;4881483;29;20441;-90
2023/04/16 06:20:30;;;;;;;71.67;31.90;;;9.20;99.90;;;;;;4881563;29;20477;-91
2023/04/16 06:22:56;;;;;;;78.93;33.28;;;9.50;99.90;;;;;;4881569;29;20431;-92
2023/04/16 06:25:22;;;;;;;72.00;33.05;;;9.30;99.90;;;;;;4881188;29;20779;-91
2023/04/16 06:27:48;;;;;;;77.53;33.93;;;9.30;99.90;;;;;;4881153;29;20418;-90
2023/04/16 06:30:15;;;;;;;74.13;32.47;;;9.30;99.90;;;;;;4881508;29;20429;-91
2023/04/16 06:32:44;;;;;;;68.95;31.58;;;9.30;99.90;;;;;;4881075;29;20424;-94
2023/04/16 06:35:10;;;;;;;69.63;32.47;;;9.50;99.90;;;;;;4881957;29;20457;-93
2023/04/16 06:37:36;;;;;;;64.55;30.40;;;9.50;99.90;;;;;;4880917;29;20473;-92
2023/04/16 06:40:02;;;;;;;69.87;29.43;;;9.60;99.90;;;;;;4881272;29;20425;-93
2023/04/16 06:42:27;;;;;;;58.78;26.67;;;9.50;99.90;;;;;;4880505;29;20463;-90
2023/04/16 06:44:53;;;;;;;61.22;27.65;;;9.60;99.90;;;;;;4872378;29;20430;-92
2023/04/16 06:47:19;;;;;;;58.50;27.33;;;9.80;99.90;;;;;;4862245;29;20438;-93
2023/04/16 06:49:44;;;;;;;61.20;28.63;;;9.50;99.90;;;;;;4871854;29;20900;-92
2023/04/16 06:52:11;;;;;;;65.72;29.25;;;9.80;99.90;;;;;;4862631;29;20514;-91
2023/04/16 06:54:36;;;;;;;66.03;29.90;;;9.70;99.90;;;;;;4861716;29;20495;-91
2023/04/16 06:57:02;;;;;;;60.07;27.80;;;9.80;99.90;;;;;;4862395;29;20413;-92
2023/04/16 06:59:28;;;;;;;62.08;28.58;;;9.60;99.90;;;;;;4861474;29;20792;-91
2023/04/16 07:01:54;;;;;;;62.20;28.80;;;9.80;99.90;;;;;;4878035;29;20422;-92
2023/04/16 07:04:22;;;;;;;61.47;27.27;;;9.70;99.90;;;;;;4911960;29;20507;-91
2023/04/16 07:06:48;;;;;;;64.10;28.20;;;10.00;99.90;;;;;;4880536;29;20417;-91
2023/04/16 07:09:14;;;;;;;63.35;26.95;;;10.00;99.90;;;;;;4872916;29;20426;-92
2023/04/16 07:11:40;;;;;;;55.38;26.42;;;10.20;99.90;;;;;;4862968;29;20425;-91
2023/04/16 07:14:07;;;;;;;52.58;26.45;;;10.20;99.90;;;;;;4872041;29;20423;-91
2023/04/16 07:16:32;;;;;;;56.20;26.33;;;10.00;99.90;;;;;;4879873;29;20421;-91
2023/04/16 07:18:58;;;;;;;54.90;26.07;;;10.20;99.90;;;;;;4876116;29;20443;-92
2023/04/16 07:21:25;;;;;;;58.17;27.45;;;9.90;99.90;;;;;;4867425;29;20435;-93
2023/04/16 07:23:50;;;;;;;60.92;26.15;;;10.00;99.90;;;;;;4880148;29;20413;-91
2023/04/16 07:26:16;;;;;;;53.30;25.30;;;10.20;99.90;;;;;;4878817;29;20413;-93
2023/04/16 07:28:42;;;;;;;47.13;24.05;;;10.60;99.90;;;;;;4880171;29;20512;-91
2023/04/16 07:31:08;;;;;;;49.93;23.87;;;10.30;99.90;;;;;;4878491;29;20429;-91
2023/04/16 07:33:33;;;;;;;47.87;23.93;;;10.30;99.90;;;;;;4878835;29;20877;-92
2023/04/16 07:35:59;;;;;;;50.53;23.67;;;10.60;99.90;;;;;;4879325;29;20764;-92
2023/04/16 07:38:25;;;;;;;50.95;23.60;;;10.30;99.90;;;;;;4878476;29;20444;-92
2023/04/16 07:40:50;;;;;;;48.85;23.13;;;10.60;99.90;;;;;;4879226;29;20426;-93
2023/04/16 07:43:16;;;;;;;49.97;22.57;;;10.50;99.90;;;;;;4878547;29;20413;-91
2023/04/16 07:45:42;;;;;;;47.45;22.92;;;10.70;99.90;;;;;;4879132;29;20409;-93
2023/04/16 07:48:07;;;;;;;43.45;22.95;;;10.50;99.90;;;;;;4878962;29;20473;-91
2023/04/16 07:50:33;;;;;;;41.63;22.60;;;10.70;99.90;;;;;;4879074;29;20413;-91
2023/04/16 07:52:59;;;;;;;42.53;21.92;;;10.80;99.90;;;;;;4879147;29;20419;-92
2023/04/16 07:55:24;;;;;;;38.50;21.13;;;10.80;99.90;;;;;;4878336;29;20453;-90
2023/04/16 07:57:51;;;;;;;39.23;21.13;;;11.10;99.90;;;;;;4879045;29;20441;-90
2023/04/16 08:00:16;;;;;;;40.00;21.53;;;11.00;99.90;;;;;;4877908;29;20429;-90
2023/04/16 08:02:43;;;;;;;38.07;22.10;;;10.90;99.90;;;;;;4878706;29;20424;-92
2023/04/16 08:05:09;;;;;;;47.50;23.23;;;11.30;99.90;;;;;;4878513;29;20421;-90
2023/04/16 08:07:35;;;;;;;41.13;21.48;;;11.10;99.90;;;;;;4878727;29;20428;-91
2023/04/16 08:10:01;;;;;;;45.67;22.00;;;11.50;99.90;;;;;;4878857;29;20417;-92
2023/04/16 08:12:27;;;;;;;43.40;21.92;;;11.50;99.90;;;;;;4878122;29;20424;-92
2023/04/16 08:14:53;;;;;;;39.75;21.73;;;11.60;99.90;;;;;;4878726;29;20413;-91
2023/04/16 08:17:19;;;;;;;44.05;22.30;;;11.80;99.90;;;;;;4877980;29;20749;-92
2023/04/16 08:19:44;;;;;;;46.70;22.43;;;11.60;99.90;;;;;;4878121;29;20410;-91
2023/04/16 08:22:13;;;;;;;50.03;23.08;;;11.50;99.90;;;;;;4878068;29;20417;-91
2023/04/16 08:24:39;;;;;;;43.13;22.00;;;11.60;99.90;;;;;;4878803;29;20421;-91
2023/04/16 08:27:05;;;;;;;37.15;21.65;;;11.80;99.90;;;;;;4878427;29;20437;-91
2023/04/16 08:29:31;;;;;;;36.57;21.67;;;11.70;99.90;;;;;;4878076;29;20520;-92
2023/04/16 08:31:57;;;;;;;37.80;21.20;;;11.80;99.90;;;;;;4878846;29;20519;-91
2023/04/16 08:34:23;;;;;;;36.55;21.67;;;11.80;99.90;;;;;;4878147;29;20834;-90
2023/04/16 08:36:49;;;;;;;38.10;21.95;;;11.90;99.90;;;;;;4878445;29;20417;-90
2023/04/16 08:39:15;;;;;;;38.63;22.40;;;11.90;99.90;;;;;;4877330;29;20537;-91
2023/04/16 08:41:45;;;;;;;37.75;22.38;;;11.90;99.90;;;;;;4893467;29;20512;-90
2023/04/16 08:44:20;;;;;;;41.83;22.38;;;11.80;99.90;;;;;;4877697;29;20409;-90
2023/04/16 08:46:46;;;;;;;40.55;22.42;;;11.80;99.90;;;;;;4877229;29;20418;-90
2023/04/16 08:49:19;;;;;;;40.45;22.05;;;11.90;99.90;;;;;;4878686;29;20422;-90
2023/04/16 08:51:56;;;;;;;37.90;21.98;;;11.70;99.90;;;;;;4877994;29;20814;-90
2023/04/16 08:54:37;;;;;;;37.10;22.65;;;11.80;99.90;;;;;;4877905;29;20763;-91
2023/04/16 08:57:05;;;;;;;40.60;22.00;;;11.80;99.90;;;;;;4877741;29;20493;-91
2023/04/16 08:59:32;;;;;;;45.60;22.88;;;12.10;99.90;;;;;;4877537;29;20424;-91
2023/04/16 09:01:59;;;;;;;45.25;22.63;;;12.10;99.90;;;;;;4878325;29;20853;-91
2023/04/16 09:04:28;;;;;;;38.22;22.17;;;12.20;99.90;;;;;;4893307;29;20977;-92
2023/04/16 09:06:57;;;;;;;38.53;22.23;;;12.00;99.90;;;;;;4878094;29;20413;-91
2023/04/16 09:09:25;;;;;;;38.78;21.95;;;12.40;99.90;;;;;;4877127;29;20433;-94
2023/04/16 09:11:52;;;;;;;42.40;22.17;;;12.30;99.90;;;;;;4878059;29;20524;-92
2023/04/16 09:14:19;;;;;;;35.42;21.25;;;12.60;99.90;;;;;;4877223;29;20417;-91
2023/04/16 09:16:48;;;;;;;38.65;21.80;;;12.40;99.90;;;;;;4877571;29;20954;-91
2023/04/16 09:19:15;;;;;;;32.50;20.15;;;12.60;99.90;;;;;;4878102;29;20437;-90
2023/04/16 09:21:44;;;;;;;33.15;20.65;;;12.20;99.90;;;;;;4877351;29;20421;-90
2023/04/16 09:24:10;;;;;;;32.60;19.65;;;12.50;99.90;;;;;;4877555;29;20545;-89
2023/04/16 09:26:36;;;;;;;32.08;19.63;;;12.60;99.90;;;;;;4877377;29;20453;-91
2023/04/16 09:29:02;;;;;;;35.47;19.80;;;13.00;99.90;;;;;;4877538;29;20456;-92
2023/04/16 09:31:27;;;;;;;34.80;21.77;;;12.80;99.90;;;;;;4877548;29;20500;-91
2023/04/16 09:34:07;;;;;;;43.38;21.63;;;12.60;99.90;;;;;;4880860;29;20455;-92
2023/04/16 09:36:34;;;;;;;39.33;21.48;;;12.70;99.90;;;;;;4881621;29;20570;-91
2023/04/16 09:39:01;;;;;;;39.10;22.13;;;12.80;99.90;;;;;;4880452;29;20441;-92
2023/04/16 09:41:32;;;;;;;39.00;22.00;;;12.70;99.90;;;;;;4881296;29;20428;-91
2023/04/16 09:44:03;;;;;;;39.25;21.35;;;12.80;99.90;;;;;;4880500;29;20429;-91
2023/04/16 09:46:30;;;;;;;35.47;20.33;;;12.60;99.90;;;;;;4880869;29;20413;-91
2023/04/16 09:48:56;;;;;;;35.20;21.57;;;12.70;99.90;;;;;;4880254;29;20422;-92
2023/04/16 09:51:24;;;;;;;38.40;21.80;;;12.80;99.90;;;;;;4896355;29;20433;-90
2023/04/16 09:53:55;;;;;;;36.42;21.77;;;12.40;99.90;;;;;;4881040;29;20413;-92
2023/04/16 09:56:25;;;;;;;38.17;22.45;;;12.50;99.90;;;;;;4880249;29;20425;-90
2023/04/16 09:58:55;;;;;;;41.63;22.20;;;12.50;99.90;;;;;;4880796;29;20874;-93
2023/04/16 10:01:20;;;;;;;45.40;24.17;;;13.20;99.90;;;;;;4880490;29;20914;-91
2023/04/16 10:03:48;;;;;;;43.30;23.58;;;12.80;99.90;;;;;;4880338;29;20414;-92
2023/04/16 10:06:15;;;;;;;37.38;23.40;;;12.60;99.90;;;;;;4880601;29;20422;-91
2023/04/16 10:08:49;;;;;;;43.33;24.48;;;12.60;99.90;;;;;;4880823;29;20778;-91
2023/04/16 10:11:16;;;;;;;45.78;26.50;;;12.40;99.90;;;;;;4880414;29;20427;-90
2023/04/16 10:13:42;;;;;;;42.53;25.63;;;12.80;99.90;;;;;;4879980;29;20501;-92
2023/04/16 10:16:08;;;;;;;48.17;25.02;;;12.90;99.90;;;;;;4896032;29;20496;-92
2023/04/16 10:18:39;;;;;;;42.03;24.00;;;12.80;99.90;;;;;;4880085;29;20507;-91
2023/04/16 10:21:04;;;;;;;39.55;22.48;;;12.80;99.90;;;;;;4880751;29;20763;-91
2023/04/16 10:23:32;;;;;;;35.70;23.57;;;12.80;99.90;;;;;;4880265;29;20496;-91
2023/04/16 10:26:00;;;;;;;39.83;23.50;;;12.40;99.90;;;;;;4880334;29;20420;-90
2023/04/16 10:28:27;;;;;;;40.83;23.25;;;12.40;99.90;;;;;;4880193;29;20465;-91
2023/04/16 10:30:55;;;;;;;40.75;24.15;;;12.00;99.90;;;;;;4879700;29;20519;-90
2023/04/16 10:33:30;;;;;;;38.80;24.27;;;12.30;99.90;;;;;;4880513;29;20422;-91
2023/04/16 10:36:15;;;;;;;37.28;23.98;;;12.10;99.90;;;;;;4880207;29;20420;-92
2023/04/16 10:38:45;;;;;;;39.15;23.55;;;12.00;99.90;;;;;;4880053;29;20531;-92
2023/04/16 10:41:11;;;;;;;40.08;24.10;;;12.10;99.90;;;;;;4879795;29;20424;-91
2023/04/16 10:43:45;;;;;;;35.38;23.65;;;12.10;99.90;;;;;;4879392;29;20421;-92
2023/04/16 10:46:30;;;;;;;34.13;22.77;;;12.20;99.90;;;;;;4880099;29;20505;-90
2023/04/16 10:49:00;;;;;;;35.45;23.73;;;12.40;99.90;;;;;;4879738;29;20417;-91
2023/04/16 10:51:33;;;;;;;40.03;22.70;;;12.90;99.90;;;;;;4880293;29;20413;-91
2023/04/16 10:54:08;;;;;;;43.45;23.33;;;12.60;99.90;;;;;;4879204;29;20477;-92
2023/04/16 10:56:35;;;;;;;38.63;22.23;;;12.70;99.90;;;;;;4879461;29;20947;-90
2023/04/16 10:59:05;;;;;;;35.72;21.52;;;12.40;99.90;;;;;;4880277;29;20876;-92
2023/04/16 11:01:36;;;;;;;30.38;21.02;;;12.50;99.90;;;;;;4879121;29;20425;-91
2023/04/16 11:04:20;;;;;;;35.20;22.38;;;12.50;99.90;;;;;;4896008;29;20413;-92
2023/04/16 11:07:05;;;;;;;37.08;22.02;;;12.70;99.90;;;;;;4879110;29;20489;-91
2023/04/16 11:09:58;;;;;;;36.97;22.55;;;12.60;99.90;;;;;;4879295;29;20891;-91
2023/04/16 11:12:43;;;;;;;42.08;23.63;;;12.40;99.90;;;;;;4879915;29;20515;-91
2023/04/16 11:15:11;;;;;;;32.38;22.48;;;12.20;99.90;;;;;;4879418;29;20513;-91
2023/04/16 11:17:51;;;;;;;32.25;23.20;;;12.20;99.90;;;;;;4879622;29;20981;-92
2023/04/16 11:20:25;;;;;;;32.80;22.90;;;12.20;99.90;;;;;;4879749;29;20984;-90
2023/04/16 11:22:52;;;;;;;35.28;22.27;;;12.50;99.90;;;;;;4878984;29;20416;-90
2023/04/16 11:25:26;;;;;;;34.30;21.92;;;12.70;99.90;;;;;;4878669;29;20417;-91
2023/04/16 11:27:52;;;;;;;32.40;20.88;;;12.90;99.90;;;;;;4878869;29;20432;-91
2023/04/16 11:30:27;;;;;;;32.60;21.05;;;13.00;99.90;;;;;;4879124;29;20421;-93
2023/04/16 11:32:53;;;;;;;32.47;20.92;;;12.80;99.90;;;;;;4878804;29;20418;-91
2023/04/16 11:35:19;;;;;;;31.52;20.92;;;12.80;99.90;;;;;;4894773;29;20421;-92
2023/04/16 11:37:47;;;;;;;38.55;22.17;;;13.00;99.90;;;;;;4879086;29;20522;-90
2023/04/16 11:40:13;;;;;;;35.97;21.80;;;13.10;99.90;;;;;;4878373;29;20560;-91
2023/04/16 11:42:40;;;;;;;38.17;21.00;;;13.10;99.90;;;;;;4879658;29;20500;-91
2023/04/16 11:45:07;;;;;;;34.47;20.63;;;12.90;99.90;;;;;;4878327;29;20500;-91
2023/04/16 11:47:45;;;;;;;34.92;21.35;;;12.80;99.90;;;;;;4878759;29;20405;-90
2023/04/16 11:50:19;;;;;;;31.95;20.77;;;12.80;99.90;;;;;;4878579;29;20428;-90
2023/04/16 11:52:46;;;;;;;29.98;19.70;;;12.70;99.90;;;;;;4878787;29;20433;-92
2023/04/16 11:55:12;;;;;;;28.73;18.95;;;13.40;99.90;;;;;;4878447;29;20417;-93
2023/04/16 11:57:38;;;;;;;26.88;19.40;;;13.50;99.90;;;;;;4878921;29;20452;-91
2023/04/16 12:00:12;;;;;;;34.83;19.57;;;13.50;99.90;;;;;;4879025;29;20421;-92
2023/04/16 12:02:43;;;;;;;30.25;19.75;;;13.50;99.90;;;;;;4877653;29;21089;-91
2023/04/16 12:05:30;;;;;;;31.70;18.97;;;13.60;99.90;;;;;;4878486;29;20454;-93
2023/04/16 12:07:57;;;;;;;29.75;19.02;;;13.80;99.90;;;;;;4878661;29;20421;-93
2023/04/16 12:10:23;;;;;;;29.17;19.00;;;14.00;99.90;;;;;;4878097;29;20422;-92
2023/04/16 12:12:49;;;;;;;27.25;18.08;;;14.00;99.90;;;;;;4878839;29;20413;-91
2023/04/16 12:15:15;;;;;;;25.83;18.77;;;13.80;99.90;;;;;;4877765;29;20425;-92
2023/04/16 12:17:40;;;;;;;29.67;19.33;;;14.00;99.90;;;;;;4878448;29;20444;-92
2023/04/16 12:20:11;;;;;;;25.90;18.13;;;14.10;99.90;;;;;;4877744;29;20498;-92
2023/04/16 12:22:45;;;;;;;28.35;19.75;;;14.30;99.90;;;;;;4878442;29;20514;-91
2023/04/16 12:25:13;;;;;;;29.50;20.00;;;14.00;99.90;;;;;;4878110;29;20421;-91
2023/04/16 12:27:44;;;;;;;29.80;19.10;;;14.30;99.90;;;;;;4878080;29;20421;-91
2023/04/16 12:30:10;;;;;;;28.77;19.42;;;14.10;99.90;;;;;;4878499;29;20858;-90
2023/04/16 12:32:36;;;;;;;29.08;20.70;;;14.20;99.90;;;;;;4877249;29;20961;-92
2023/04/16 12:35:02;;;;;;;27.55;19.73;;;14.10;99.90;;;;;;4878198;29;20413;-93